Templar Park, Iowa
Current Conditions -  °F | °C
As of 4:34 PM on Sunday 23 Nov 2014 (Local Time) from KMJQ Reporting Station
Overcast Overcast  
Wind Chill: 32°   Ceiling: 3500
Heat Index: 41°   Visibility: 10mi
Dew Point: 32°   Wind: 18mph
Humidity: 70%   Direction: 320°NW
Pressure: 29.46"   Gusts: 24mph
Location:  43.4265°N, 95.1547°W
Report Text: KMJQ 232234Z AUTO 32016G21KT 10SM BKN035 BKN060 OVC095 05/00 A2946 RMK AO2
Loading
Personal Weather Stations






























Interactive Weather Map New forecast layout! Learn more

10-Day Weather Forecast

Advertisements
Track Severe Weather on mobile